sensor_id;sensor_type;location;lat;lon;timestamp;pressure;altitude;pressure_sealevel;temperature;humidity
53900;BME280;40509;32.858;-116.858;2023-04-06T00:00:50;98197.16;;;18.57;44.23
53900;BME280;40509;32.858;-116.858;2023-04-06T00:03:18;98198.00;;;18.57;44.63
53900;BME280;40509;32.858;-116.858;2023-04-06T00:05:47;98194.53;;;18.57;44.37
53900;BME280;40509;32.858;-116.858;2023-04-06T00:08:14;98195.25;;;18.59;44.39
53900;BME280;40509;32.858;-116.858;2023-04-06T00:10:41;98197.03;;;18.58;44.35
53900;BME280;40509;32.858;-116.858;2023-04-06T00:13:09;98204.72;;;18.60;44.56
53900;BME280;40509;32.858;-116.858;2023-04-06T00:15:36;98201.19;;;18.61;44.32
53900;BME280;40509;32.858;-116.858;2023-04-06T00:18:03;98204.63;;;18.61;44.25
53900;BME280;40509;32.858;-116.858;2023-04-06T00:20:30;98204.50;;;18.63;44.63
53900;BME280;40509;32.858;-116.858;2023-04-06T00:22:58;98205.47;;;18.62;44.45
53900;BME280;40509;32.858;-116.858;2023-04-06T00:25:25;98203.91;;;18.59;44.47
53900;BME280;40509;32.858;-116.858;2023-04-06T00:27:53;98215.19;;;18.60;44.54
53900;BME280;40509;32.858;-116.858;2023-04-06T00:30:20;98210.94;;;18.59;44.96
53900;BME280;40509;32.858;-116.858;2023-04-06T00:32:47;98211.75;;;18.59;44.74
53900;BME280;40509;32.858;-116.858;2023-04-06T00:35:14;98211.75;;;18.59;44.56
53900;BME280;40509;32.858;-116.858;2023-04-06T00:37:42;98207.34;;;18.60;44.69
53900;BME280;40509;32.858;-116.858;2023-04-06T00:40:10;98208.78;;;18.64;44.72
53900;BME280;40509;32.858;-116.858;2023-04-06T00:42:37;98213.16;;;18.63;44.80
53900;BME280;40509;32.858;-116.858;2023-04-06T00:45:04;98209.59;;;18.64;44.39
53900;BME280;40509;32.858;-116.858;2023-04-06T00:47:33;98213.88;;;18.65;44.51
53900;BME280;40509;32.858;-116.858;2023-04-06T00:50:00;98212.09;;;18.66;44.89
53900;BME280;40509;32.858;-116.858;2023-04-06T00:52:28;98207.94;;;18.63;44.71
53900;BME280;40509;32.858;-116.858;2023-04-06T00:54:55;98214.03;;;18.64;44.73
53900;BME280;40509;32.858;-116.858;2023-04-06T00:57:22;98219.25;;;18.64;44.73
53900;BME280;40509;32.858;-116.858;2023-04-06T00:59:55;98210.56;;;18.63;45.03
53900;BME280;40509;32.858;-116.858;2023-04-06T01:02:23;98212.34;;;18.63;44.63
53900;BME280;40509;32.858;-116.858;2023-04-06T01:04:54;98214.13;;;18.62;44.73
53900;BME280;40509;32.858;-116.858;2023-04-06T01:07:35;98216.72;;;18.62;45.10
53900;BME280;40509;32.858;-116.858;2023-04-06T01:10:07;98211.50;;;18.62;44.86
53900;BME280;40509;32.858;-116.858;2023-04-06T01:12:36;98215.91;;;18.62;44.98
53900;BME280;40509;32.858;-116.858;2023-04-06T01:15:11;98207.13;;;18.63;44.85
53900;BME280;40509;32.858;-116.858;2023-04-06T01:17:42;98210.56;;;18.63;45.14
53900;BME280;40509;32.858;-116.858;2023-04-06T01:20:13;98212.34;;;18.63;44.90
53900;BME280;40509;32.858;-116.858;2023-04-06T01:22:41;98209.75;;;18.63;45.08
53900;BME280;40509;32.858;-116.858;2023-04-06T01:25:09;98220.19;;;18.63;45.08
53900;BME280;40509;32.858;-116.858;2023-04-06T01:27:45;98221.88;;;18.64;44.96
53900;BME280;40509;32.858;-116.858;2023-04-06T01:30:20;98217.31;;;18.66;45.00
53900;BME280;40509;32.858;-116.858;2023-04-06T01:32:53;98213.63;;;18.68;45.03
53900;BME280;40509;32.858;-116.858;2023-04-06T01:35:37;98211.34;;;18.75;44.95
53900;BME280;40509;32.858;-116.858;2023-04-06T01:38:14;98223.47;;;18.76;44.94
53900;BME280;40509;32.858;-116.858;2023-04-06T01:40:41;98228.69;;;18.76;44.86
53900;BME280;40509;32.858;-116.858;2023-04-06T01:43:09;98230.59;;;18.74;45.14
53900;BME280;40509;32.858;-116.858;2023-04-06T01:45:48;98234.16;;;18.73;44.88
53900;BME280;40509;32.858;-116.858;2023-04-06T01:48:20;98229.19;;;18.70;45.14
53900;BME280;40509;32.858;-116.858;2023-04-06T01:50:47;98237.97;;;18.69;44.96
53900;BME280;40509;32.858;-116.858;2023-04-06T01:53:20;98233.72;;;18.68;45.23
53900;BME280;40509;32.858;-116.858;2023-04-06T01:55:48;98228.38;;;18.69;45.08
53900;BME280;40509;32.858;-116.858;2023-04-06T01:58:34;98221.47;;;18.68;45.42
53900;BME280;40509;32.858;-116.858;2023-04-06T02:01:02;98227.28;;;18.72;45.16
53900;BME280;40509;32.858;-116.858;2023-04-06T02:03:37;98232.25;;;18.75;45.53
53900;BME280;40509;32.858;-116.858;2023-04-06T02:06:09;98230.13;;;18.69;45.46
53900;BME280;40509;32.858;-116.858;2023-04-06T02:08:39;98234.69;;;18.67;45.23
53900;BME280;40509;32.858;-116.858;2023-04-06T02:11:07;98232.06;;;18.67;45.63
53900;BME280;40509;32.858;-116.858;2023-04-06T02:13:40;98235.38;;;18.69;45.69
53900;BME280;40509;32.858;-116.858;2023-04-06T02:16:09;98234.81;;;18.65;45.48
53900;BME280;40509;32.858;-116.858;2023-04-06T02:18:36;98236.34;;;18.68;45.61
53900;BME280;40509;32.858;-116.858;2023-04-06T02:21:03;98243.22;;;18.69;45.64
53900;BME280;40509;32.858;-116.858;2023-04-06T02:23:30;98252.97;;;18.67;45.90
53900;BME280;40509;32.858;-116.858;2023-04-06T02:25:57;98248.69;;;18.66;46.08
53900;BME280;40509;32.858;-116.858;2023-04-06T02:28:24;98251.19;;;18.67;46.05
53900;BME280;40509;32.858;-116.858;2023-04-06T02:30:52;98250.63;;;18.64;46.61
53900;BME280;40509;32.858;-116.858;2023-04-06T02:33:20;98250.84;;;18.61;45.88
53900;BME280;40509;32.858;-116.858;2023-04-06T02:35:48;98254.88;;;18.65;46.01
53900;BME280;40509;32.858;-116.858;2023-04-06T02:38:15;98260.81;;;18.67;46.36
53900;BME280;40509;32.858;-116.858;2023-04-06T02:40:43;98256.41;;;18.67;46.47
53900;BME280;40509;32.858;-116.858;2023-04-06T02:43:25;98251.19;;;18.67;46.63
53900;BME280;40509;32.858;-116.858;2023-04-06T02:45:59;98253.94;;;18.66;46.60
53900;BME280;40509;32.858;-116.858;2023-04-06T02:48:27;98261.78;;;18.66;46.69
53900;BME280;40509;32.858;-116.858;2023-04-06T02:50:54;98264.25;;;18.67;46.35
53900;BME280;40509;32.858;-116.858;2023-04-06T02:53:22;98261.78;;;18.66;46.65
53900;BME280;40509;32.858;-116.858;2023-04-06T02:55:49;98254.88;;;18.65;46.82
53900;BME280;40509;32.858;-116.858;2023-04-06T02:58:16;98253.94;;;18.66;46.73
53900;BME280;40509;32.858;-116.858;2023-04-06T03:00:48;98259.28;;;18.64;46.97
53900;BME280;40509;32.858;-116.858;2023-04-06T03:03:15;98254.88;;;18.65;47.09
53900;BME280;40509;32.858;-116.858;2023-04-06T03:05:44;98259.28;;;18.64;47.09
53900;BME280;40509;32.858;-116.858;2023-04-06T03:08:12;98255.00;;;18.63;47.17
53900;BME280;40509;32.858;-116.858;2023-04-06T03:10:44;98255.94;;;18.62;47.33
53900;BME280;40509;32.858;-116.858;2023-04-06T03:13:13;98257.75;;;18.62;46.98
53900;BME280;40509;32.858;-116.858;2023-04-06T03:15:47;98253.47;;;18.61;46.96
53900;BME280;40509;32.858;-116.858;2023-04-06T03:18:21;98254.31;;;18.61;47.29
53900;BME280;40509;32.858;-116.858;2023-04-06T03:20:53;98263.78;;;18.62;47.28
53900;BME280;40509;32.858;-116.858;2023-04-06T03:23:23;98256.94;;;18.61;47.23
53900;BME280;40509;32.858;-116.858;2023-04-06T03:25:55;98263.09;;;18.60;47.01
53900;BME280;40509;32.858;-116.858;2023-04-06T03:28:22;98265.59;;;18.62;47.19
53900;BME280;40509;32.858;-116.858;2023-04-06T03:31:03;98261.31;;;18.61;47.15
53900;BME280;40509;32.858;-116.858;2023-04-06T03:33:56;98271.78;;;18.61;47.21
53900;BME280;40509;32.858;-116.858;2023-04-06T03:36:28;98275.31;;;18.60;47.13
53900;BME280;40509;32.858;-116.858;2023-04-06T03:38:57;98274.50;;;18.59;47.42
53900;BME280;40509;32.858;-116.858;2023-04-06T03:41:24;98277.94;;;18.60;47.45
53900;BME280;40509;32.858;-116.858;2023-04-06T03:43:59;98272.72;;;18.60;47.06
53900;BME280;40509;32.858;-116.858;2023-04-06T03:46:26;98273.69;;;18.59;47.29
53900;BME280;40509;32.858;-116.858;2023-04-06T03:48:56;98273.69;;;18.59;47.20
53900;BME280;40509;32.858;-116.858;2023-04-06T03:51:24;98277.25;;;18.58;47.38
53900;BME280;40509;32.858;-116.858;2023-04-06T03:53:52;98278.91;;;18.59;47.11
53900;BME280;40509;32.858;-116.858;2023-04-06T03:56:19;98277.38;;;18.56;47.58
53900;BME280;40509;32.858;-116.858;2023-04-06T03:58:46;98278.19;;;18.57;47.34
53900;BME280;40509;32.858;-116.858;2023-04-06T04:01:17;98269.53;;;18.56;47.35
53900;BME280;40509;32.858;-116.858;2023-04-06T04:03:45;98261.69;;;18.56;47.54
53900;BME280;40509;32.858;-116.858;2023-04-06T04:06:14;98269.66;;;18.54;47.19
53900;BME280;40509;32.858;-116.858;2023-04-06T04:08:41;98279.16;;;18.56;47.56
53900;BME280;40509;32.858;-116.858;2023-04-06T04:11:09;98279.28;;;18.54;47.32
53900;BME280;40509;32.858;-116.858;2023-04-06T04:13:36;98280.94;;;18.55;47.59
53900;BME280;40509;32.858;-116.858;2023-04-06T04:16:06;98285.47;;;18.53;47.46
53900;BME280;40509;32.858;-116.858;2023-04-06T04:18:33;98278.44;;;18.53;47.59
53900;BME280;40509;32.858;-116.858;2023-04-06T04:21:00;98281.88;;;18.54;47.70
53900;BME280;40509;32.858;-116.858;2023-04-06T04:23:28;98277.63;;;18.53;47.70
53900;BME280;40509;32.858;-116.858;2023-04-06T04:25:55;98287.38;;;18.51;47.77
53900;BME280;40509;32.858;-116.858;2023-04-06T04:28:22;98287.38;;;18.51;47.46
53900;BME280;40509;32.858;-116.858;2023-04-06T04:30:50;98282.28;;;18.49;47.69
53900;BME280;40509;32.858;-116.858;2023-04-06T04:33:17;98276.91;;;18.51;47.77
53900;BME280;40509;32.858;-116.858;2023-04-06T04:35:45;98286.56;;;18.50;47.75
53900;BME280;40509;32.858;-116.858;2023-04-06T04:38:17;98283.09;;;18.50;47.71
53900;BME280;40509;32.858;-116.858;2023-04-06T04:40:50;98278.84;;;18.49;47.64
53900;BME280;40509;32.858;-116.858;2023-04-06T04:43:18;98281.44;;;18.49;47.58
53900;BME280;40509;32.858;-116.858;2023-04-06T04:45:45;98288.56;;;18.47;47.78
53900;BME280;40509;32.858;-116.858;2023-04-06T04:48:31;98292.00;;;18.47;47.62
53900;BME280;40509;32.858;-116.858;2023-04-06T04:51:02;98283.47;;;18.45;47.84
53900;BME280;40509;32.858;-116.858;2023-04-06T04:53:41;98284.41;;;18.44;47.99
53900;BME280;40509;32.858;-116.858;2023-04-06T04:56:17;98281.81;;;18.44;47.87
53900;BME280;40509;32.858;-116.858;2023-04-06T04:58:47;98280.13;;;18.43;47.91
53900;BME280;40509;32.858;-116.858;2023-04-06T05:01:14;98282.75;;;18.43;47.94
53900;BME280;40509;32.858;-116.858;2023-04-06T05:03:44;98288.09;;;18.42;47.78
53900;BME280;40509;32.858;-116.858;2023-04-06T05:06:14;98293.19;;;18.43;47.75
53900;BME280;40509;32.858;-116.858;2023-04-06T05:08:43;98284.66;;;18.41;47.62
53900;BME280;40509;32.858;-116.858;2023-04-06T05:11:10;98281.19;;;18.41;47.87
53900;BME280;40509;32.858;-116.858;2023-04-06T05:13:43;98280.38;;;18.40;47.94
53900;BME280;40509;32.858;-116.858;2023-04-06T05:16:17;98277.78;;;18.40;47.90
53900;BME280;40509;32.858;-116.858;2023-04-06T05:18:45;98283.94;;;18.39;47.83
53900;BME280;40509;32.858;-116.858;2023-04-06T05:21:15;98283.13;;;18.39;47.89
53900;BME280;40509;32.858;-116.858;2023-04-06T05:23:54;98280.63;;;18.37;48.03
53900;BME280;40509;32.858;-116.858;2023-04-06T05:26:22;98285.75;;;18.39;47.69
53900;BME280;40509;32.858;-116.858;2023-04-06T05:28:52;98281.47;;;18.37;48.00
53900;BME280;40509;32.858;-116.858;2023-04-06T05:31:22;98288.47;;;18.37;48.05
53900;BME280;40509;32.858;-116.858;2023-04-06T05:33:51;98283.50;;;18.34;47.81
53900;BME280;40509;32.858;-116.858;2023-04-06T05:36:29;98281.72;;;18.34;47.79
53900;BME280;40509;32.858;-116.858;2023-04-06T05:38:58;98288.72;;;18.34;48.13
53900;BME280;40509;32.858;-116.858;2023-04-06T05:41:49;98282.78;;;18.32;47.95
53900;BME280;40509;32.858;-116.858;2023-04-06T05:44:23;98283.59;;;18.32;47.82
53900;BME280;40509;32.858;-116.858;2023-04-06T05:47:01;98286.34;;;18.31;48.08
53900;BME280;40509;32.858;-116.858;2023-04-06T05:49:28;98284.44;;;18.33;47.95
53900;BME280;40509;32.858;-116.858;2023-04-06T05:51:56;98279.34;;;18.31;48.00
53900;BME280;40509;32.858;-116.858;2023-04-06T05:54:23;98277.69;;;18.30;48.26
53900;BME280;40509;32.858;-116.858;2023-04-06T05:56:54;98277.81;;;18.29;48.06
53900;BME280;40509;32.858;-116.858;2023-04-06T05:59:21;98277.81;;;18.29;48.03
53900;BME280;40509;32.858;-116.858;2023-04-06T06:01:50;98271.72;;;18.28;48.09
53900;BME280;40509;32.858;-116.858;2023-04-06T06:04:18;98277.94;;;18.27;48.00
53900;BME280;40509;32.858;-116.858;2023-04-06T06:06:47;98282.31;;;18.27;47.85
53900;BME280;40509;32.858;-116.858;2023-04-06T06:09:29;98280.63;;;18.26;47.86
53900;BME280;40509;32.858;-116.858;2023-04-06T06:12:19;98285.03;;;18.25;48.06
53900;BME280;40509;32.858;-116.858;2023-04-06T06:14:48;98281.63;;;18.25;48.06
53900;BME280;40509;32.858;-116.858;2023-04-06T06:17:16;98279.22;;;18.22;47.92
53900;BME280;40509;32.858;-116.858;2023-04-06T06:19:46;98282.69;;;18.22;47.86
53900;BME280;40509;32.858;-116.858;2023-04-06T06:22:13;98280.19;;;18.20;47.96
53900;BME280;40509;32.858;-116.858;2023-04-06T06:24:44;98274.97;;;18.20;48.15
53900;BME280;40509;32.858;-116.858;2023-04-06T06:27:12;98275.19;;;18.17;48.10
53900;BME280;40509;32.858;-116.858;2023-04-06T06:29:40;98279.47;;;18.18;48.18
53900;BME280;40509;32.858;-116.858;2023-04-06T06:32:07;98273.44;;;18.18;48.21
53900;BME280;40509;32.858;-116.858;2023-04-06T06:34:36;98281.25;;;18.18;48.20
53900;BME280;40509;32.858;-116.858;2023-04-06T06:37:06;98277.09;;;18.15;48.08
53900;BME280;40509;32.858;-116.858;2023-04-06T06:39:36;98278.88;;;18.15;48.12
53900;BME280;40509;32.858;-116.858;2023-04-06T06:42:03;98276.25;;;18.15;48.07
53900;BME280;40509;32.858;-116.858;2023-04-06T06:44:46;98278.19;;;18.13;47.95
53900;BME280;40509;32.858;-116.858;2023-04-06T06:47:13;98282.69;;;18.11;48.27
53900;BME280;40509;32.858;-116.858;2023-04-06T06:49:40;98285.28;;;18.11;48.00
53900;BME280;40509;32.858;-116.858;2023-04-06T06:52:07;98279.25;;;18.10;48.29
53900;BME280;40509;32.858;-116.858;2023-04-06T06:54:34;98279.25;;;18.10;48.15
53900;BME280;40509;32.858;-116.858;2023-04-06T06:57:01;98277.69;;;18.08;48.24
53900;BME280;40509;32.858;-116.858;2023-04-06T06:59:28;98278.56;;;18.08;48.12
53900;BME280;40509;32.858;-116.858;2023-04-06T07:01:56;98276.03;;;18.07;48.25
53900;BME280;40509;32.858;-116.858;2023-04-06T07:04:24;98277.00;;;18.06;48.23
53900;BME280;40509;32.858;-116.858;2023-04-06T07:06:51;98277.00;;;18.06;47.87
53900;BME280;40509;32.858;-116.858;2023-04-06T07:09:19;98276.03;;;18.07;47.82
53900;BME280;40509;32.858;-116.858;2023-04-06T07:11:46;98277.94;;;18.05;47.89
53900;BME280;40509;32.858;-116.858;2023-04-06T07:14:15;98280.56;;;18.05;48.06
53900;BME280;40509;32.858;-116.858;2023-04-06T07:16:43;98283.31;;;18.03;48.08
53900;BME280;40509;32.858;-116.858;2023-04-06T07:19:11;98276.41;;;18.02;48.01
53900;BME280;40509;32.858;-116.858;2023-04-06T07:21:39;98287.09;;;17.99;48.19
53900;BME280;40509;32.858;-116.858;2023-04-06T07:24:06;98290.53;;;17.99;48.08
53900;BME280;40509;32.858;-116.858;2023-04-06T07:26:33;98281.28;;;17.95;48.04
53900;BME280;40509;32.858;-116.858;2023-04-06T07:29:01;98288.03;;;17.98;47.87
53900;BME280;40509;32.858;-116.858;2023-04-06T07:31:28;98283.75;;;17.97;47.88
53900;BME280;40509;32.858;-116.858;2023-04-06T07:33:56;98290.91;;;17.95;48.10
53900;BME280;40509;32.858;-116.858;2023-04-06T07:36:24;98288.28;;;17.95;47.87
53900;BME280;40509;32.858;-116.858;2023-04-06T07:38:51;98298.75;;;17.95;47.99
53900;BME280;40509;32.858;-116.858;2023-04-06T07:41:18;98295.16;;;17.96;47.73
53900;BME280;40509;32.858;-116.858;2023-04-06T07:43:46;98285.78;;;17.93;47.89
53900;BME280;40509;32.858;-116.858;2023-04-06T07:46:13;98295.50;;;17.91;47.59
53900;BME280;40509;32.858;-116.858;2023-04-06T07:48:40;98298.22;;;17.90;47.74
53900;BME280;40509;32.858;-116.858;2023-04-06T07:51:08;98291.47;;;17.87;47.67
53900;BME280;40509;32.858;-116.858;2023-04-06T07:53:42;98292.16;;;17.89;47.78
53900;BME280;40509;32.858;-116.858;2023-04-06T07:56:09;98288.97;;;17.85;47.90
53900;BME280;40509;32.858;-116.858;2023-04-06T07:58:37;98289.78;;;17.86;47.67
53900;BME280;40509;32.858;-116.858;2023-04-06T08:01:04;98292.66;;;17.83;47.78
53900;BME280;40509;32.858;-116.858;2023-04-06T08:03:34;98279.09;;;17.78;47.46
53900;BME280;40509;32.858;-116.858;2023-04-06T08:06:01;98283.03;;;17.83;47.66
53900;BME280;40509;32.858;-116.858;2023-04-06T08:08:29;98282.53;;;17.78;47.66
53900;BME280;40509;32.858;-116.858;2023-04-06T08:10:57;98284.94;;;17.81;47.54
53900;BME280;40509;32.858;-116.858;2023-04-06T08:13:25;98281.38;;;17.82;47.36
53900;BME280;40509;32.858;-116.858;2023-04-06T08:15:52;98279.22;;;17.76;47.51
53900;BME280;40509;32.858;-116.858;2023-04-06T08:18:20;98276.63;;;17.76;47.67
53900;BME280;40509;32.858;-116.858;2023-04-06T08:20:47;98276.63;;;17.76;47.73
53900;BME280;40509;32.858;-116.858;2023-04-06T08:23:16;98286.34;;;17.74;47.53
53900;BME280;40509;32.858;-116.858;2023-04-06T08:25:43;98286.25;;;17.76;47.47
53900;BME280;40509;32.858;-116.858;2023-04-06T08:28:10;98281.22;;;17.73;47.46
53900;BME280;40509;32.858;-116.858;2023-04-06T08:30:40;98289.19;;;17.71;47.55
53900;BME280;40509;32.858;-116.858;2023-04-06T08:33:08;98284.09;;;17.69;47.18
53900;BME280;40509;32.858;-116.858;2023-04-06T08:35:36;98283.28;;;17.69;47.33
53900;BME280;40509;32.858;-116.858;2023-04-06T08:38:03;98283.16;;;17.70;47.29
53900;BME280;40509;32.858;-116.858;2023-04-06T08:40:36;98283.28;;;17.69;47.18
53900;BME280;40509;32.858;-116.858;2023-04-06T08:43:06;98284.44;;;17.65;47.49
53900;BME280;40509;32.858;-116.858;2023-04-06T08:45:36;98280.06;;;17.65;47.38
53900;BME280;40509;32.858;-116.858;2023-04-06T08:48:05;98279.22;;;17.65;47.20
53900;BME280;40509;32.858;-116.858;2023-04-06T08:50:33;98270.31;;;17.67;47.21
53900;BME280;40509;32.858;-116.858;2023-04-06T08:53:01;98269.84;;;17.62;47.35
53900;BME280;40509;32.858;-116.858;2023-04-06T08:55:29;98265.56;;;17.61;47.16
53900;BME280;40509;32.858;-116.858;2023-04-06T08:57:56;98266.28;;;17.63;47.52
53900;BME280;40509;32.858;-116.858;2023-04-06T09:00:25;98259.53;;;17.61;47.34
53900;BME280;40509;32.858;-116.858;2023-04-06T09:02:54;98252.66;;;17.60;46.97
53900;BME280;40509;32.858;-116.858;2023-04-06T09:05:24;98252.66;;;17.60;47.19
53900;BME280;40509;32.858;-116.858;2023-04-06T09:07:52;98254.41;;;17.59;47.18
53900;BME280;40509;32.858;-116.858;2023-04-06T09:10:19;98251.22;;;17.56;47.08
53900;BME280;40509;32.858;-116.858;2023-04-06T09:12:47;98249.19;;;17.59;47.21
53900;BME280;40509;32.858;-116.858;2023-04-06T09:15:21;98245.50;;;17.50;47.30
53900;BME280;40509;32.858;-116.858;2023-04-06T09:17:48;98238.63;;;17.49;47.27
53900;BME280;40509;32.858;-116.858;2023-04-06T09:20:22;98240.91;;;17.54;47.18
53900;BME280;40509;32.858;-116.858;2023-04-06T09:22:52;98240.06;;;17.53;47.21
53900;BME280;40509;32.858;-116.858;2023-04-06T09:25:21;98232.47;;;17.50;47.06
53900;BME280;40509;32.858;-116.858;2023-04-06T09:27:59;98223.09;;;17.48;47.10
53900;BME280;40509;32.858;-116.858;2023-04-06T09:30:26;98224.38;;;17.53;47.14
53900;BME280;40509;32.858;-116.858;2023-04-06T09:32:56;98222.97;;;17.49;47.09
53900;BME280;40509;32.858;-116.858;2023-04-06T09:35:24;98227.50;;;17.47;46.86
53900;BME280;40509;32.858;-116.858;2023-04-06T09:37:53;98222.72;;;17.52;47.01
53900;BME280;40509;32.858;-116.858;2023-04-06T09:40:22;98224.38;;;17.53;47.22
53900;BME280;40509;32.858;-116.858;2023-04-06T09:42:50;98209.91;;;17.49;47.02
53900;BME280;40509;32.858;-116.858;2023-04-06T09:45:19;98212.03;;;17.44;47.02
53900;BME280;40509;32.858;-116.858;2023-04-06T09:47:47;98212.03;;;17.44;47.00
53900;BME280;40509;32.858;-116.858;2023-04-06T09:50:16;98199.00;;;17.44;46.95
53900;BME280;40509;32.858;-116.858;2023-04-06T09:52:50;98194.75;;;17.43;47.03
53900;BME280;40509;32.858;-116.858;2023-04-06T09:55:26;98192.72;;;17.47;47.11
53900;BME280;40509;32.858;-116.858;2023-04-06T09:58:05;98194.00;;;17.41;47.15
53900;BME280;40509;32.858;-116.858;2023-04-06T10:01:22;98183.94;;;17.48;46.84
53900;BME280;40509;32.858;-116.858;2023-04-06T10:06:39;98184.44;;;17.42;47.10
53900;BME280;40509;32.858;-116.858;2023-04-06T10:09:07;98181.09;;;17.40;46.92
53900;BME280;40509;32.858;-116.858;2023-04-06T10:11:36;98183.94;;;17.36;47.09
53900;BME280;40509;32.858;-116.858;2023-04-06T10:14:03;98187.50;;;17.35;47.11
53900;BME280;40509;32.858;-116.858;2023-04-06T10:16:31;98177.50;;;17.29;46.96
53900;BME280;40509;32.858;-116.858;2023-04-06T10:19:06;98175.16;;;17.26;47.03
53900;BME280;40509;32.858;-116.858;2023-04-06T10:21:37;98176.34;;;17.22;47.10
53900;BME280;40509;32.858;-116.858;2023-04-06T10:24:08;98172.66;;;17.25;47.39
53900;BME280;40509;32.858;-116.858;2023-04-06T10:26:40;98169.31;;;17.23;47.22
53900;BME280;40509;32.858;-116.858;2023-04-06T10:29:07;98167.56;;;17.23;47.20
53900;BME280;40509;32.858;-116.858;2023-04-06T10:31:41;98170.41;;;17.20;47.04
53900;BME280;40509;32.858;-116.858;2023-04-06T10:34:10;98167.91;;;17.18;46.94
53900;BME280;40509;32.858;-116.858;2023-04-06T10:36:37;98168.38;;;17.24;46.90
53900;BME280;40509;32.858;-116.858;2023-04-06T10:39:05;98172.91;;;17.22;46.94
53900;BME280;40509;32.858;-116.858;2023-04-06T10:44:04;98173.03;;;17.20;46.83
53900;BME280;40509;32.858;-116.858;2023-04-06T10:46:32;98180.94;;;17.18;46.94
53900;BME280;40509;32.858;-116.858;2023-04-06T10:49:12;98172.31;;;17.18;46.96
53900;BME280;40509;32.858;-116.858;2023-04-06T10:51:40;98170.28;;;17.22;46.93
53900;BME280;40509;32.858;-116.858;2023-04-06T10:54:07;98168.16;;;17.15;47.01
53900;BME280;40509;32.858;-116.858;2023-04-06T10:56:37;98170.63;;;17.17;46.95
53900;BME280;40509;32.858;-116.858;2023-04-06T10:59:05;98177.75;;;17.15;47.19
53900;BME280;40509;32.858;-116.858;2023-04-06T11:01:34;98177.75;;;17.15;46.90
53900;BME280;40509;32.858;-116.858;2023-04-06T11:04:01;98173.59;;;17.12;47.00
53900;BME280;40509;32.858;-116.858;2023-04-06T11:06:30;98172.53;;;17.15;46.76
53900;BME280;40509;32.858;-116.858;2023-04-06T11:09:00;98164.34;;;17.08;46.91
53900;BME280;40509;32.858;-116.858;2023-04-06T11:11:27;98164.00;;;17.13;47.12
53900;BME280;40509;32.858;-116.858;2023-04-06T11:13:57;98159.38;;;17.05;46.79
53900;BME280;40509;32.858;-116.858;2023-04-06T11:16:27;98163.16;;;17.12;47.06
53900;BME280;40509;32.858;-116.858;2023-04-06T11:18:57;98162.81;;;17.06;46.82
53900;BME280;40509;32.858;-116.858;2023-04-06T11:24:23;98159.84;;;17.10;47.08
53900;BME280;40509;32.858;-116.858;2023-04-06T11:26:58;98156.53;;;17.08;46.90
53900;BME280;40509;32.858;-116.858;2023-04-06T11:29:29;98161.63;;;17.10;46.97
53900;BME280;40509;32.858;-116.858;2023-04-06T11:32:03;98150.47;;;17.08;46.81
53900;BME280;40509;32.858;-116.858;2023-04-06T11:34:33;98153.78;;;16.98;47.13
53900;BME280;40509;32.858;-116.858;2023-04-06T11:37:08;98154.72;;;16.97;46.89
53900;BME280;40509;32.858;-116.858;2023-04-06T11:42:20;98150.56;;;16.95;46.92
53900;BME280;40509;32.858;-116.858;2023-04-06T11:44:50;98155.44;;;16.99;46.95
53900;BME280;40509;32.858;-116.858;2023-04-06T11:47:18;98157.22;;;16.99;46.81
53900;BME280;40509;32.858;-116.858;2023-04-06T11:49:46;98159.22;;;16.95;46.82
53900;BME280;40509;32.858;-116.858;2023-04-06T11:52:23;98159.59;;;16.91;46.92
53900;BME280;40509;32.858;-116.858;2023-04-06T11:54:52;98166.88;;;16.85;46.94
53900;BME280;40509;32.858;-116.858;2023-04-06T11:57:21;98159.59;;;16.91;46.62
53900;BME280;40509;32.858;-116.858;2023-04-06T11:59:52;98165.22;;;16.84;47.06
53900;BME280;40509;32.858;-116.858;2023-04-06T12:02:20;98175.63;;;16.84;46.74
53900;BME280;40509;32.858;-116.858;2023-04-06T12:04:47;98175.53;;;16.86;46.99
53900;BME280;40509;32.858;-116.858;2023-04-06T12:07:14;98177.53;;;16.82;46.88
53900;BME280;40509;32.858;-116.858;2023-04-06T12:09:43;98175.25;;;16.78;47.06
53900;BME280;40509;32.858;-116.858;2023-04-06T12:12:10;98178.84;;;16.77;46.95
53900;BME280;40509;32.858;-116.858;2023-04-06T12:14:37;98175.88;;;16.81;46.72
53900;BME280;40509;32.858;-116.858;2023-04-06T12:17:04;98174.31;;;16.79;46.92
53900;BME280;40509;32.858;-116.858;2023-04-06T12:19:32;98174.00;;;16.83;46.66
53900;BME280;40509;32.858;-116.858;2023-04-06T12:21:59;98177.78;;;16.79;46.86
53900;BME280;40509;32.858;-116.858;2023-04-06T12:24:27;98170.66;;;16.81;46.65
53900;BME280;40509;32.858;-116.858;2023-04-06T12:26:55;98171.03;;;16.88;46.66
53900;BME280;40509;32.858;-116.858;2023-04-06T12:29:24;98175.06;;;16.81;46.60
53900;BME280;40509;32.858;-116.858;2023-04-06T12:31:51;98172.78;;;16.76;46.72
53900;BME280;40509;32.858;-116.858;2023-04-06T12:34:19;98178.00;;;16.76;47.15
53900;BME280;40509;32.858;-116.858;2023-04-06T12:36:47;98177.63;;;16.69;47.10
53900;BME280;40509;32.858;-116.858;2023-04-06T12:39:14;98180.09;;;16.71;46.83
53900;BME280;40509;32.858;-116.858;2023-04-06T12:41:43;98177.63;;;16.69;46.61
53900;BME280;40509;32.858;-116.858;2023-04-06T12:44:10;98186.16;;;16.72;46.78
53900;BME280;40509;32.858;-116.858;2023-04-06T12:46:37;98191.03;;;16.76;46.65
53900;BME280;40509;32.858;-116.858;2023-04-06T12:49:04;98191.63;;;16.68;46.91
53900;BME280;40509;32.858;-116.858;2023-04-06T12:51:32;98185.56;;;16.68;46.92
53900;BME280;40509;32.858;-116.858;2023-04-06T12:54:00;98185.66;;;16.66;46.81